Time;durP1;ratioP1;P1;durP2;ratioP2;P2;SDS_P1;SDS_P2;PMS_P1;PMS_P2;Temp;Humidity;BMP_temperature;BMP_pressure;BME280_temperature;BME280_humidity;BME280_pressure;Samples;Min_cycle;Max_cycle;Signal;HPM_P1;HPM_P2
2022/09/02 00:00:52;;;;;;;3.13;0.90;;;15.40;88.20;;;;;;6257457;22;20015;-87
2022/09/02 00:03:18;;;;;;;4.90;1.00;;;15.40;88.20;;;;;;6256843;22;20033;-87
2022/09/02 00:05:44;;;;;;;2.53;0.90;;;15.40;88.20;;;;;;6256918;22;20112;-87
2022/09/02 00:08:11;;;;;;;4.07;1.02;;;15.30;88.30;;;;;;6256337;22;20068;-87
2022/09/02 00:10:40;;;;;;;1.92;0.95;;;15.30;88.30;;;;;;6282311;22;20015;-88
2022/09/02 00:13:09;;;;;;;1.63;0.88;;;15.30;88.30;;;;;;6282778;22;20011;-88
2022/09/02 00:15:35;;;;;;;2.88;1.00;;;15.30;88.40;;;;;;6256272;22;20040;-88
2022/09/02 00:18:01;;;;;;;3.85;0.93;;;15.20;88.40;;;;;;6256112;22;20065;-88
2022/09/02 00:20:28;;;;;;;3.55;1.10;;;15.20;88.50;;;;;;6255625;22;20392;-87
2022/09/02 00:22:54;;;;;;;2.50;0.95;;;15.20;88.60;;;;;;6256394;22;20076;-88
2022/09/02 00:25:20;;;;;;;5.28;0.95;;;15.20;88.60;;;;;;6236059;22;20018;-87
2022/09/02 00:27:46;;;;;;;6.38;1.10;;;15.20;88.60;;;;;;6262784;22;20015;-87
2022/09/02 00:30:13;;;;;;;1.65;1.02;;;15.10;88.70;;;;;;6240580;22;20027;-88
2022/09/02 00:32:39;;;;;;;1.75;0.80;;;15.20;88.80;;;;;;6257033;22;20053;-87
2022/09/02 00:35:06;;;;;;;2.25;0.85;;;15.10;88.90;;;;;;6258247;22;20340;-87
2022/09/02 00:37:31;;;;;;;3.08;1.00;;;15.10;89.00;;;;;;6231916;22;20118;-88
2022/09/02 00:39:57;;;;;;;3.20;0.90;;;15.10;89.10;;;;;;6257472;22;20441;-88
2022/09/02 00:42:24;;;;;;;2.83;1.00;;;15.10;89.20;;;;;;6256794;22;20603;-87
2022/09/02 00:44:50;;;;;;;2.08;1.08;;;15.10;89.30;;;;;;6281997;22;20007;-88
2022/09/02 00:47:16;;;;;;;2.53;0.90;;;15.00;89.30;;;;;;6231638;22;20077;-88
2022/09/02 00:49:47;;;;;;;1.65;0.82;;;15.00;89.50;;;;;;6232039;22;20011;-88
2022/09/02 00:52:33;;;;;;;3.17;1.00;;;15.00;89.60;;;;;;6257772;22;20007;-88
2022/09/02 00:55:03;;;;;;;1.35;0.93;;;15.00;89.90;;;;;;6283481;22;20018;-88
2022/09/02 00:57:35;;;;;;;2.75;1.02;;;14.90;89.80;;;;;;6258361;22;20383;-88
2022/09/02 01:00:07;;;;;;;1.92;0.85;;;14.90;89.90;;;;;;6284271;22;20050;-87
2022/09/02 01:02:35;;;;;;;2.78;0.90;;;14.90;90.00;;;;;;6263433;22;20015;-88
2022/09/02 01:05:02;;;;;;;2.10;0.98;;;14.90;90.00;;;;;;6284135;22;20468;-87
2022/09/02 01:07:37;;;;;;;2.60;0.93;;;14.90;90.10;;;;;;6259393;22;20076;-87
2022/09/02 01:10:07;;;;;;;2.67;1.00;;;14.80;90.10;;;;;;6236385;22;20065;-87
2022/09/02 01:12:34;;;;;;;3.85;1.17;;;14.80;90.10;;;;;;6280204;22;20073;-87
2022/09/02 01:15:01;;;;;;;1.88;0.88;;;14.80;90.20;;;;;;6256696;22;20026;-87
2022/09/02 01:17:28;;;;;;;1.38;0.90;;;14.80;90.30;;;;;;6282305;22;20030;-87
2022/09/02 01:20:05;;;;;;;1.88;0.77;;;14.80;90.30;;;;;;6236272;22;20069;-88
2022/09/02 01:22:32;;;;;;;1.67;0.77;;;14.70;90.40;;;;;;6258947;22;20011;-88
2022/09/02 01:25:04;;;;;;;1.58;0.88;;;14.70;90.50;;;;;;6242558;22;20011;-88
2022/09/02 01:27:30;;;;;;;2.08;0.77;;;14.70;90.50;;;;;;6286239;22;20007;-87
2022/09/02 01:29:58;;;;;;;3.42;0.90;;;14.70;90.60;;;;;;6257958;22;20096;-86
2022/09/02 01:32:24;;;;;;;1.80;0.90;;;14.70;90.70;;;;;;6257410;22;20086;-88
2022/09/02 01:34:50;;;;;;;3.65;1.00;;;14.70;90.70;;;;;;6282260;22;20092;-87
2022/09/02 01:37:16;;;;;;;2.05;1.10;;;14.60;90.70;;;;;;6282299;22;20012;-87
2022/09/02 01:39:42;;;;;;;3.85;0.93;;;14.60;90.80;;;;;;6283125;22;20015;-88
2022/09/02 01:42:08;;;;;;;4.55;1.10;;;14.60;90.80;;;;;;6207013;22;20019;-87
2022/09/02 01:44:42;;;;;;;3.33;1.10;;;14.60;90.90;;;;;;6281525;22;20033;-88
2022/09/02 01:47:10;;;;;;;1.85;0.98;;;14.60;91.00;;;;;;6280733;22;20015;-88
2022/09/02 01:49:36;;;;;;;6.93;1.40;;;14.60;91.30;;;;;;6280844;22;20017;-87
2022/09/02 01:52:03;;;;;;;2.28;1.00;;;14.50;91.10;;;;;;6230360;22;20046;-88
2022/09/02 01:54:28;;;;;;;2.22;0.80;;;14.50;91.10;;;;;;6256793;22;20008;-87
2022/09/02 01:56:54;;;;;;;3.08;0.90;;;14.50;91.20;;;;;;6232427;22;20022;-87
2022/09/02 01:59:20;;;;;;;2.97;0.93;;;14.50;91.30;;;;;;6256991;22;20018;-87
2022/09/02 02:01:46;;;;;;;1.95;0.82;;;14.50;91.30;;;;;;6257533;22;20038;-87
2022/09/02 02:04:12;;;;;;;2.08;0.90;;;14.50;91.40;;;;;;6282587;22;20458;-87
2022/09/02 02:06:43;;;;;;;2.33;1.10;;;14.50;91.50;;;;;;6256611;22;20012;-87
2022/09/02 02:09:10;;;;;;;2.58;1.00;;;14.40;91.50;;;;;;6257037;22;20069;-88
2022/09/02 02:11:36;;;;;;;1.88;0.95;;;14.40;91.50;;;;;;6256131;22;20032;-86
2022/09/02 02:14:02;;;;;;;2.00;1.30;;;14.40;91.60;;;;;;6283185;22;20453;-88
2022/09/02 02:16:28;;;;;;;1.33;0.90;;;14.40;91.70;;;;;;6282942;22;20007;-87
2022/09/02 02:18:54;;;;;;;2.25;1.00;;;14.30;91.70;;;;;;6207662;22;20414;-87
2022/09/02 02:21:20;;;;;;;1.38;0.88;;;14.30;91.80;;;;;;6232397;22;20011;-88
2022/09/02 02:23:45;;;;;;;1.50;0.90;;;14.30;91.90;;;;;;6265893;22;20054;-87
2022/09/02 02:26:11;;;;;;;1.88;1.08;;;14.30;92.00;;;;;;6263133;22;20022;-88
2022/09/02 02:28:37;;;;;;;3.83;1.48;;;14.30;92.00;;;;;;6257680;22;20092;-87
2022/09/02 02:31:04;;;;;;;1.83;1.25;;;14.30;92.10;;;;;;6256567;22;20018;-87
2022/09/02 02:33:30;;;;;;;2.05;1.00;;;14.30;92.20;;;;;;6256681;22;20038;-88
2022/09/02 02:35:56;;;;;;;1.63;0.98;;;14.20;92.30;;;;;;6256792;22;20011;-86
2022/09/02 02:38:22;;;;;;;1.83;0.90;;;14.20;92.30;;;;;;6282006;22;20014;-88
2022/09/02 02:40:48;;;;;;;3.92;1.20;;;14.20;92.40;;;;;;6206202;22;20095;-88
2022/09/02 02:43:14;;;;;;;2.63;1.08;;;14.20;92.40;;;;;;6282101;22;20026;-88
2022/09/02 02:45:39;;;;;;;5.25;1.10;;;14.20;92.50;;;;;;6281950;22;20011;-88
2022/09/02 02:48:06;;;;;;;2.38;1.00;;;14.10;92.60;;;;;;6257019;22;20060;-88
2022/09/02 02:50:32;;;;;;;4.50;1.15;;;14.20;92.70;;;;;;6282106;22;20073;-88
2022/09/02 02:53:01;;;;;;;1.00;0.88;;;14.10;92.70;;;;;;6256417;22;20046;-88
2022/09/02 02:55:27;;;;;;;4.38;1.20;;;14.10;92.80;;;;;;6257792;22;20039;-88
2022/09/02 02:57:53;;;;;;;1.70;0.90;;;14.10;92.90;;;;;;6231935;22;20008;-88
2022/09/02 03:00:25;;;;;;;1.85;1.00;;;14.10;92.90;;;;;;6282265;22;20493;-87
2022/09/02 03:02:59;;;;;;;1.92;0.98;;;14.10;93.00;;;;;;6285265;22;20018;-88
2022/09/02 03:05:25;;;;;;;2.75;1.00;;;14.00;93.00;;;;;;6258451;22;20042;-87
2022/09/02 03:07:52;;;;;;;1.33;0.98;;;14.10;93.10;;;;;;6282531;22;20011;-88
2022/09/02 03:10:18;;;;;;;3.05;1.20;;;14.00;93.20;;;;;;6257187;22;20094;-87
2022/09/02 03:12:47;;;;;;;1.50;0.98;;;14.00;93.20;;;;;;6282774;22;20011;-88
2022/09/02 03:15:15;;;;;;;1.92;1.05;;;14.10;93.30;;;;;;6232061;22;20007;-87
2022/09/02 03:17:46;;;;;;;3.22;1.38;;;14.00;93.40;;;;;;6285821;22;20021;-87
2022/09/02 03:20:14;;;;;;;1.55;1.10;;;14.00;93.50;;;;;;6232933;22;20021;-88
2022/09/02 03:22:42;;;;;;;1.98;1.20;;;14.00;93.50;;;;;;6283514;22;20014;-88
2022/09/02 03:25:09;;;;;;;2.85;1.10;;;14.00;93.60;;;;;;6233867;22;20007;-88
2022/09/02 03:27:39;;;;;;;2.35;1.30;;;13.90;93.60;;;;;;6232654;22;20012;-88
2022/09/02 03:30:10;;;;;;;6.85;1.05;;;14.00;93.70;;;;;;6257584;22;20073;-87
2022/09/02 03:32:36;;;;;;;1.70;1.00;;;14.00;93.80;;;;;;6256672;22;20007;-87
2022/09/02 03:35:06;;;;;;;2.38;1.10;;;14.00;93.90;;;;;;6283629;22;20039;-88
2022/09/02 03:37:37;;;;;;;7.63;1.30;;;13.90;93.90;;;;;;6258086;22;20393;-88
2022/09/02 03:40:06;;;;;;;1.95;1.13;;;14.00;94.00;;;;;;6258151;22;20015;-88
2022/09/02 03:42:32;;;;;;;1.30;1.13;;;13.90;94.10;;;;;;6259267;22;20015;-89
2022/09/02 03:44:58;;;;;;;3.90;1.40;;;13.90;94.10;;;;;;6258472;22;20564;-89
2022/09/02 03:47:24;;;;;;;2.28;1.30;;;13.90;94.30;;;;;;6257449;22;20086;-88
2022/09/02 03:49:50;;;;;;;1.52;1.00;;;13.90;94.30;;;;;;6232314;22;20018;-87
2022/09/02 03:52:16;;;;;;;2.10;1.10;;;13.90;94.40;;;;;;6258338;22;20011;-88
2022/09/02 03:54:42;;;;;;;5.97;1.27;;;13.90;94.40;;;;;;6231683;22;20015;-88
2022/09/02 03:57:07;;;;;;;3.45;1.20;;;13.90;94.50;;;;;;6282686;22;20362;-89
2022/09/02 03:59:33;;;;;;;3.35;1.40;;;13.90;94.60;;;;;;6232023;22;20076;-89
2022/09/02 04:02:01;;;;;;;1.80;1.02;;;13.80;94.70;;;;;;6231515;22;20030;-88
2022/09/02 04:04:28;;;;;;;1.02;0.80;;;13.90;94.80;;;;;;6257033;22;20060;-88
2022/09/02 04:06:54;;;;;;;2.38;1.38;;;13.80;94.90;;;;;;6231593;22;20011;-89
2022/09/02 04:09:19;;;;;;;2.10;1.30;;;13.80;95.00;;;;;;6232105;22;20311;-88
2022/09/02 04:11:45;;;;;;;2.10;1.15;;;13.80;95.00;;;;;;6257179;22;20069;-89
2022/09/02 04:14:11;;;;;;;2.40;1.35;;;13.80;95.10;;;;;;6231641;22;20042;-88
2022/09/02 04:16:37;;;;;;;2.63;1.25;;;13.80;95.20;;;;;;6257019;22;20042;-89
2022/09/02 04:19:04;;;;;;;2.88;1.20;;;13.80;95.30;;;;;;6241619;22;20102;-88
2022/09/02 04:21:33;;;;;;;1.80;1.30;;;13.80;95.30;;;;;;6258753;22;20145;-88
2022/09/02 04:23:59;;;;;;;3.35;1.17;;;13.70;95.40;;;;;;6231588;22;20092;-88
2022/09/02 04:26:25;;;;;;;4.38;1.00;;;13.70;95.50;;;;;;6232525;22;20011;-89
2022/09/02 04:28:52;;;;;;;3.17;1.13;;;13.70;95.60;;;;;;6256845;22;20011;-88
2022/09/02 04:31:20;;;;;;;3.00;1.30;;;13.70;95.60;;;;;;6256019;22;20042;-88
2022/09/02 04:33:46;;;;;;;3.50;1.20;;;13.70;95.70;;;;;;6230706;22;20464;-88
2022/09/02 04:36:15;;;;;;;1.95;1.17;;;13.60;95.90;;;;;;6281444;22;20045;-88
2022/09/02 04:38:41;;;;;;;6.22;1.30;;;13.60;96.00;;;;;;6281715;22;20042;-88
2022/09/02 04:41:09;;;;;;;3.50;1.35;;;13.60;96.10;;;;;;6256260;22;20337;-89
2022/09/02 04:43:35;;;;;;;2.72;1.30;;;13.60;96.20;;;;;;6256130;22;20037;-88
2022/09/02 04:46:07;;;;;;;1.80;1.33;;;13.60;96.30;;;;;;6281321;22;20018;-89
2022/09/02 04:48:35;;;;;;;1.90;1.23;;;13.60;96.40;;;;;;6282477;22;20026;-88
2022/09/02 04:51:23;;;;;;;3.38;1.27;;;13.50;96.50;;;;;;6231300;22;20011;-88
2022/09/02 04:53:51;;;;;;;2.97;1.40;;;13.60;96.80;;;;;;6282412;22;20007;-88
2022/09/02 04:56:21;;;;;;;2.35;1.40;;;13.50;96.80;;;;;;6232165;22;20318;-88
2022/09/02 04:58:49;;;;;;;1.85;1.27;;;13.50;96.90;;;;;;6256495;22;20441;-88
2022/09/02 05:01:22;;;;;;;2.33;1.30;;;13.50;97.10;;;;;;6256797;22;20094;-88
2022/09/02 05:03:50;;;;;;;1.67;1.23;;;13.50;97.20;;;;;;6257030;22;20068;-89
2022/09/02 05:06:20;;;;;;;1.60;1.13;;;13.50;97.30;;;;;;6256464;22;20924;-88
2022/09/02 05:08:47;;;;;;;3.47;1.30;;;13.50;97.50;;;;;;6256319;22;20140;-88
2022/09/02 05:11:27;;;;;;;3.13;1.30;;;13.50;97.60;;;;;;6232062;22;20015;-89
2022/09/02 05:13:54;;;;;;;2.88;1.52;;;13.50;97.80;;;;;;6283508;22;20014;-88
2022/09/02 05:16:23;;;;;;;1.92;1.33;;;13.50;97.90;;;;;;6231868;22;20384;-88
2022/09/02 05:18:51;;;;;;;3.33;1.58;;;13.50;98.00;;;;;;6256793;22;20011;-88
2022/09/02 05:21:17;;;;;;;3.08;1.30;;;13.50;98.20;;;;;;6231294;22;20015;-88
2022/09/02 05:23:43;;;;;;;1.88;1.33;;;13.50;98.30;;;;;;6282472;22;20016;-89
2022/09/02 05:26:11;;;;;;;2.83;1.50;;;13.50;98.50;;;;;;6256678;22;20033;-88
2022/09/02 05:28:38;;;;;;;3.53;1.60;;;13.50;98.60;;;;;;6232754;22;20023;-89
2022/09/02 05:31:11;;;;;;;3.55;1.30;;;13.50;98.60;;;;;;6257601;22;20337;-87
2022/09/02 05:33:39;;;;;;;4.40;1.60;;;13.50;98.70;;;;;;6259049;22;20469;-88
2022/09/02 05:36:11;;;;;;;3.08;1.63;;;13.50;98.80;;;;;;6258975;22;20014;-88
2022/09/02 05:38:38;;;;;;;3.70;1.55;;;13.60;98.90;;;;;;6259137;22;20018;-89
2022/09/02 05:41:06;;;;;;;2.00;1.33;;;13.60;99.00;;;;;;6258216;22;20051;-87
2022/09/02 05:43:38;;;;;;;4.43;1.95;;;13.60;99.00;;;;;;6284645;22;20102;-88
2022/09/02 05:46:06;;;;;;;2.45;1.40;;;13.60;99.20;;;;;;6233135;22;20015;-88
2022/09/02 05:51:18;;;;;;;5.68;1.60;;;13.70;99.40;;;;;;6283102;22;20022;-88
2022/09/02 05:53:44;;;;;;;4.90;1.98;;;13.60;99.50;;;;;;6282226;22;20011;-88
2022/09/02 05:56:09;;;;;;;2.83;1.30;;;13.70;99.60;;;;;;6231641;22;20007;-88
2022/09/02 05:58:35;;;;;;;2.83;1.50;;;13.70;99.70;;;;;;6232626;22;20014;-89
2022/09/02 06:01:13;;;;;;;2.47;1.60;;;13.70;99.80;;;;;;6232966;22;20015;-87
2022/09/02 06:03:39;;;;;;;2.05;1.50;;;13.80;99.90;;;;;;6257303;22;20069;-87
2022/09/02 06:06:05;;;;;;;2.65;1.33;;;13.80;99.90;;;;;;6258085;22;20011;-88
2022/09/02 06:08:31;;;;;;;4.10;1.67;;;13.80;99.90;;;;;;6232094;22;20445;-88
2022/09/02 06:10:59;;;;;;;4.95;1.52;;;13.80;99.90;;;;;;6258795;22;20011;-88
2022/09/02 06:13:27;;;;;;;1.77;1.38;;;13.80;99.90;;;;;;6271228;22;20059;-87
2022/09/02 06:15:53;;;;;;;4.07;1.30;;;13.90;99.90;;;;;;6263493;22;20041;-87
2022/09/02 06:18:19;;;;;;;2.17;1.30;;;13.90;99.90;;;;;;6284274;22;20011;-87
2022/09/02 06:20:46;;;;;;;8.05;1.83;;;14.00;99.90;;;;;;6231205;22;20011;-86
2022/09/02 06:23:13;;;;;;;9.48;1.95;;;14.00;99.90;;;;;;6282225;22;20090;-86
2022/09/02 06:25:41;;;;;;;3.50;1.60;;;14.10;99.90;;;;;;6256995;22;20046;-86
2022/09/02 06:28:07;;;;;;;2.10;1.50;;;14.10;99.90;;;;;;6281837;22;20034;-87
2022/09/02 06:30:33;;;;;;;2.22;1.60;;;14.20;99.90;;;;;;6256822;22;20011;-85
2022/09/02 06:33:00;;;;;;;5.38;2.00;;;14.20;99.90;;;;;;6282712;22;20034;-85
2022/09/02 06:35:26;;;;;;;9.18;1.95;;;14.30;99.90;;;;;;6256169;22;20042;-86
2022/09/02 06:37:52;;;;;;;8.60;2.03;;;14.40;99.90;;;;;;6205535;22;20007;-85
2022/09/02 06:40:18;;;;;;;7.68;1.85;;;14.50;99.90;;;;;;6256295;22;20758;-85
2022/09/02 06:42:44;;;;;;;6.22;1.80;;;14.50;99.90;;;;;;6281538;22;20077;-86
2022/09/02 06:45:10;;;;;;;6.90;1.70;;;14.60;99.90;;;;;;6257250;22;20015;-85
2022/09/02 06:47:36;;;;;;;3.75;2.10;;;14.70;99.90;;;;;;6258269;22;20011;-86
2022/09/02 06:50:02;;;;;;;4.00;1.67;;;14.80;99.90;;;;;;6232071;22;20011;-87
2022/09/02 06:52:28;;;;;;;29.08;3.00;;;14.90;99.90;;;;;;6257892;22;20042;-86
2022/09/02 06:54:54;;;;;;;4.00;1.95;;;14.90;99.90;;;;;;6270625;22;20011;-87
2022/09/02 06:57:20;;;;;;;16.42;2.92;;;14.90;99.90;;;;;;6281848;22;20045;-86
2022/09/02 06:59:46;;;;;;;9.40;1.90;;;15.00;99.90;;;;;;6281750;22;20039;-86
2022/09/02 07:02:12;;;;;;;4.28;1.50;;;15.00;99.90;;;;;;6272661;22;20070;-86
2022/09/02 07:07:24;;;;;;;2.75;1.45;;;15.50;99.90;;;;;;6285496;22;20049;-85
2022/09/02 07:09:51;;;;;;;3.17;1.45;;;16.00;99.70;;;;;;6260319;22;20012;-85
2022/09/02 07:12:18;;;;;;;2.30;1.52;;;16.40;99.00;;;;;;6231950;22;20019;-86
2022/09/02 07:14:44;;;;;;;2.88;1.50;;;16.70;98.50;;;;;;6258644;22;20090;-85
2022/09/02 07:17:16;;;;;;;3.63;1.50;;;16.80;98.30;;;;;;6257000;22;20007;-86
2022/09/02 07:19:42;;;;;;;2.85;1.30;;;16.90;98.10;;;;;;6256466;22;20015;-86
2022/09/02 07:22:08;;;;;;;5.35;1.90;;;17.00;97.80;;;;;;6256724;22;20011;-84
2022/09/02 07:24:35;;;;;;;4.30;1.70;;;17.00;97.80;;;;;;6230337;22;20039;-84
2022/09/02 07:27:01;;;;;;;3.50;2.00;;;17.00;97.70;;;;;;6256090;22;20011;-85
2022/09/02 07:29:26;;;;;;;3.33;1.50;;;17.00;97.80;;;;;;6231203;22;20007;-85
2022/09/02 07:31:52;;;;;;;3.58;1.50;;;16.90;97.90;;;;;;6230798;22;20015;-85
2022/09/02 07:34:18;;;;;;;5.25;1.77;;;16.90;98.10;;;;;;6230901;22;20039;-85
2022/09/02 07:36:44;;;;;;;5.10;1.88;;;17.00;98.00;;;;;;6231353;22;20014;-86
2022/09/02 07:39:12;;;;;;;5.28;1.70;;;17.10;97.80;;;;;;6280693;22;20376;-85
2022/09/02 07:41:39;;;;;;;4.43;1.77;;;17.30;97.60;;;;;;6280075;22;20047;-85
2022/09/02 07:44:06;;;;;;;5.00;1.60;;;17.50;96.80;;;;;;6280864;22;20011;-86
2022/09/02 07:46:33;;;;;;;4.15;1.55;;;17.70;96.70;;;;;;6230059;22;20027;-86
2022/09/02 07:49:00;;;;;;;7.00;1.60;;;17.90;96.70;;;;;;6254937;22;20376;-86
2022/09/02 07:51:27;;;;;;;4.20;1.42;;;18.20;96.80;;;;;;6254749;22;20073;-86
2022/09/02 07:53:54;;;;;;;3.92;1.58;;;18.40;96.80;;;;;;6278053;22;20010;-87
2022/09/02 07:56:20;;;;;;;2.17;1.55;;;18.70;96.60;;;;;;6227861;22;20007;-86
2022/09/02 07:58:46;;;;;;;6.50;1.60;;;18.80;96.20;;;;;;6253976;22;20743;-86
2022/09/02 08:01:12;;;;;;;2.38;1.50;;;19.00;95.60;;;;;;6228654;22;20426;-86
2022/09/02 08:03:40;;;;;;;5.15;1.75;;;19.00;95.20;;;;;;6229966;22;20011;-86
2022/09/02 08:06:07;;;;;;;2.55;1.50;;;19.10;95.00;;;;;;6282325;22;20310;-86
2022/09/02 08:08:33;;;;;;;3.85;1.60;;;19.10;95.00;;;;;;6246895;22;20372;-87
2022/09/02 08:10:59;;;;;;;3.70;1.50;;;19.10;95.00;;;;;;6255719;22;20015;-86
2022/09/02 08:13:25;;;;;;;1.92;1.40;;;19.10;95.30;;;;;;6254305;22;20437;-86
2022/09/02 08:15:51;;;;;;;3.67;1.92;;;19.10;94.80;;;;;;6254549;22;20038;-87
2022/09/02 08:18:18;;;;;;;5.30;3.20;;;19.10;93.90;;;;;;6254254;22;20068;-86
2022/09/02 08:20:43;;;;;;;5.22;1.60;;;19.20;93.80;;;;;;6254197;22;20459;-87
2022/09/02 08:23:10;;;;;;;7.28;1.60;;;19.20;93.00;;;;;;6229428;22;20085;-86
2022/09/02 08:25:36;;;;;;;7.05;2.08;;;19.20;93.30;;;;;;6255126;22;20018;-87
2022/09/02 08:28:02;;;;;;;4.85;1.23;;;19.30;93.60;;;;;;6253859;22;20468;-86
2022/09/02 08:30:28;;;;;;;5.00;1.55;;;19.30;93.40;;;;;;6228988;22;20011;-85
2022/09/02 08:32:55;;;;;;;2.65;1.45;;;19.30;93.20;;;;;;6254380;22;20018;-86
2022/09/02 08:35:20;;;;;;;8.52;1.92;;;19.30;93.30;;;;;;6228822;22;20075;-86
2022/09/02 08:37:46;;;;;;;9.10;1.88;;;19.30;92.90;;;;;;6228580;22;20096;-83
2022/09/02 08:40:19;;;;;;;4.70;2.17;;;19.30;93.20;;;;;;6229266;22;20015;-85
2022/09/02 08:42:47;;;;;;;3.30;1.35;;;19.30;93.20;;;;;;6254520;22;20078;-85
2022/09/02 08:45:12;;;;;;;4.20;1.58;;;19.30;93.50;;;;;;6280143;22;20015;-85
2022/09/02 08:47:42;;;;;;;3.72;1.52;;;19.30;93.40;;;;;;6253425;22;20015;-85
2022/09/02 08:50:13;;;;;;;3.42;1.52;;;19.30;93.40;;;;;;6252224;22;20019;-84
2022/09/02 08:52:52;;;;;;;5.70;1.50;;;19.40;92.60;;;;;;6278503;22;20011;-85
2022/09/02 08:55:24;;;;;;;5.40;2.15;;;19.40;92.70;;;;;;6253773;22;20013;-85
2022/09/02 08:57:51;;;;;;;3.00;1.50;;;19.50;92.80;;;;;;6279542;22;20018;-85
2022/09/02 09:00:16;;;;;;;5.20;1.38;;;19.50;93.10;;;;;;6253347;22;20042;-85
2022/09/02 09:03:00;;;;;;;4.90;1.40;;;19.50;93.20;;;;;;6203095;22;20015;-85
2022/09/02 09:05:52;;;;;;;8.55;1.60;;;19.60;93.10;;;;;;6279957;22;20086;-85
2022/09/02 09:08:56;;;;;;;2.47;1.13;;;19.60;93.40;;;;;;6256341;22;20011;-85
2022/09/02 09:11:35;;;;;;;6.75;1.60;;;19.60;93.60;;;;;;6256566;22;20037;-85
2022/09/02 09:14:31;;;;;;;3.53;1.55;;;19.70;92.90;;;;;;6281290;22;20007;-85
2022/09/02 09:17:06;;;;;;;3.95;1.77;;;19.80;92.10;;;;;;6256327;22;20018;-85
2022/09/02 09:19:34;;;;;;;7.10;1.50;;;19.80;91.80;;;;;;6280784;22;20022;-85
2022/09/02 09:22:02;;;;;;;2.42;1.50;;;19.90;92.20;;;;;;6281424;22;20022;-85
2022/09/02 09:24:45;;;;;;;2.85;1.23;;;19.90;92.30;;;;;;6231373;22;20015;-85
2022/09/02 09:27:19;;;;;;;7.25;1.73;;;19.90;92.20;;;;;;6256331;22;20021;-85
2022/09/02 09:29:46;;;;;;;2.67;1.60;;;20.00;91.70;;;;;;6256701;22;20378;-84
2022/09/02 09:32:21;;;;;;;4.18;1.30;;;20.10;91.50;;;;;;6256373;22;20018;-85
2022/09/02 09:34:55;;;;;;;4.32;1.50;;;20.20;91.90;;;;;;6257221;22;20011;-85
2022/09/02 09:37:49;;;;;;;6.50;1.70;;;20.30;91.50;;;;;;6280320;22;20090;-86
2022/09/02 09:40:27;;;;;;;5.22;1.60;;;20.40;91.60;;;;;;6281082;22;20034;-85
2022/09/02 09:43:04;;;;;;;6.97;1.20;;;20.50;91.40;;;;;;6281240;22;20104;-85
2022/09/02 09:45:34;;;;;;;2.50;1.40;;;20.50;90.50;;;;;;6280571;22;20341;-86
2022/09/02 09:48:15;;;;;;;2.15;1.27;;;20.60;90.10;;;;;;6281385;22;20015;-86
2022/09/02 09:50:42;;;;;;;4.07;1.35;;;20.60;90.00;;;;;;6280268;22;20019;-85
2022/09/02 09:53:25;;;;;;;3.17;1.30;;;20.70;89.90;;;;;;6230672;22;20008;-86
2022/09/02 09:56:04;;;;;;;4.90;1.30;;;20.80;88.60;;;;;;6255616;22;20485;-85
2022/09/02 09:58:38;;;;;;;2.17;1.30;;;20.80;89.60;;;;;;6282545;22;20043;-85
2022/09/02 10:01:25;;;;;;;4.70;1.60;;;20.80;90.00;;;;;;6261741;22;20015;-86
2022/09/02 10:04:06;;;;;;;;;;;20.90;89.60;;;;;;6286556;22;20022;-85
2022/09/02 10:06:32;;;;;;;2.47;1.02;;;20.90;90.00;;;;;;6255897;22;19911;-84
2022/09/02 10:09:13;;;;;;;6.40;1.33;;;21.00;87.60;;;;;;6281200;22;20068;-85
2022/09/02 10:12:10;;;;;;;4.28;1.55;;;21.00;87.20;;;;;;6281732;22;20337;-86
2022/09/02 10:14:45;;;;;;;4.90;1.20;;;21.20;87.40;;;;;;6256926;22;20046;-85
2022/09/02 10:17:30;;;;;;;;;;;21.20;86.10;;;;;;6256725;22;20577;-84
2022/09/02 10:20:21;;;;;;;3.13;1.10;;;21.20;86.60;;;;;;6255790;22;19911;-85
2022/09/02 10:23:24;;;;;;;8.35;1.60;;;21.20;84.70;;;;;;6257333;22;20003;-85
2022/09/02 10:25:59;;;;;;;3.45;1.00;;;21.40;86.00;;;;;;6257871;22;20007;-85
2022/09/02 10:28:39;;;;;;;6.40;1.40;;;21.50;86.10;;;;;;6282493;22;20076;-84
2022/09/02 10:31:47;;;;;;;4.05;1.20;;;21.60;84.90;;;;;;6282571;22;20094;-84
2022/09/02 10:34:50;;;;;;;5.95;1.20;;;21.70;84.30;;;;;;6262173;22;20016;-85
2022/09/02 10:37:22;;;;;;;1.58;1.00;;;21.70;83.00;;;;;;6256449;22;20011;-85
2022/09/02 10:39:50;;;;;;;10.45;1.00;;;21.80;82.60;;;;;;6256402;22;20012;-85
2022/09/02 10:42:40;;;;;;;2.38;0.80;;;21.90;81.10;;;;;;6282407;22;20023;-85
2022/09/02 10:45:19;;;;;;;2.67;0.90;;;21.90;80.60;;;;;;6256789;22;20007;-85
2022/09/02 10:48:05;;;;;;;2.75;0.90;;;21.90;81.10;;;;;;6282266;22;20498;-85
2022/09/02 10:50:54;;;;;;;4.13;1.13;;;22.00;81.10;;;;;;6205787;22;20098;-85
2022/09/02 10:53:53;;;;;;;4.40;1.10;;;22.00;80.50;;;;;;6236278;22;20011;-85
2022/09/02 10:56:25;;;;;;;4.25;1.00;;;22.00;78.60;;;;;;6281179;22;20011;-85
2022/09/02 10:59:12;;;;;;;2.15;1.10;;;22.10;77.40;;;;;;6255558;22;20318;-85
2022/09/02 11:01:45;;;;;;;3.90;1.08;;;22.20;75.60;;;;;;6256459;22;20011;-84
2022/09/02 11:04:38;;;;;;;3.38;1.05;;;22.20;77.80;;;;;;6256073;22;20018;-84
2022/09/02 11:07:09;;;;;;;2.08;0.98;;;22.20;78.10;;;;;;6281201;22;20015;-85
2022/09/02 11:09:41;;;;;;;3.35;1.15;;;22.30;77.50;;;;;;6255989;22;20011;-85
2022/09/02 11:12:30;;;;;;;5.20;1.30;;;22.40;77.40;;;;;;6255836;22;20015;-84
2022/09/02 11:15:05;;;;;;;1.92;1.08;;;22.40;78.00;;;;;;6255926;22;20452;-84
2022/09/02 11:17:37;;;;;;;5.72;1.20;;;22.50;77.10;;;;;;6255637;22;20037;-85
2022/09/02 11:20:25;;;;;;;6.35;1.20;;;22.50;77.40;;;;;;6255748;22;20429;-85
2022/09/02 11:23:23;;;;;;;2.47;1.20;;;22.50;77.80;;;;;;6281122;22;20015;-85
2022/09/02 11:25:59;;;;;;;4.03;1.13;;;22.60;76.70;;;;;;6254979;22;20022;-84
2022/09/02 11:28:43;;;;;;;;;;;22.70;75.20;;;;;;6256377;22;20015;-85
2022/09/02 11:31:42;;;;;;;1.98;0.95;;;22.70;75.90;;;;;;6280878;22;19921;-85
2022/09/02 11:34:23;;;;;;;3.17;1.30;;;22.70;74.50;;;;;;6247323;22;20012;-84
2022/09/02 11:36:49;;;;;;;3.45;1.08;;;22.70;73.20;;;;;;6280823;22;20468;-85
2022/09/02 11:39:42;;;;;;;5.85;1.33;;;22.80;73.20;;;;;;6230486;22;20007;-84
2022/09/02 11:42:32;;;;;;;3.35;0.98;;;22.80;74.90;;;;;;6256069;22;20086;-84
2022/09/02 11:45:26;;;;;;;2.83;1.20;;;22.80;74.70;;;;;;6281318;22;20066;-83
2022/09/02 11:48:13;;;;;;;5.82;1.75;;;22.70;75.90;;;;;;6266015;22;20011;-84
2022/09/02 11:51:00;;;;;;;4.22;1.35;;;22.80;74.70;;;;;;6255505;22;20094;-84
2022/09/02 11:53:39;;;;;;;3.15;1.42;;;22.90;73.50;;;;;;6256831;22;20441;-84
2022/09/02 11:56:08;;;;;;;4.78;1.23;;;22.90;73.60;;;;;;6282176;22;20011;-84
2022/09/02 11:58:38;;;;;;;3.03;1.08;;;22.90;73.90;;;;;;6281890;22;20011;-85
2022/09/02 12:01:21;;;;;;;5.97;1.23;;;23.00;72.80;;;;;;6257185;22;20015;-84
2022/09/02 12:03:53;;;;;;;3.17;1.20;;;23.10;73.10;;;;;;6256940;22;20015;-84
2022/09/02 12:06:20;;;;;;;2.75;1.20;;;23.10;72.80;;;;;;6281194;22;20015;-85
2022/09/02 12:08:45;;;;;;;4.47;1.10;;;23.20;71.40;;;;;;6229810;22;20437;-84
2022/09/02 12:11:40;;;;;;;5.95;1.85;;;23.20;71.00;;;;;;6254812;22;20022;-85
2022/09/02 12:14:10;;;;;;;1.98;1.10;;;23.30;71.40;;;;;;6281444;22;20476;-86
2022/09/02 12:17:01;;;;;;;2.50;1.00;;;23.30;71.70;;;;;;6257170;22;20036;-84
2022/09/02 12:19:49;;;;;;;5.35;1.58;;;23.30;71.30;;;;;;6257140;22;20008;-87
2022/09/02 12:22:14;;;;;;;4.47;1.30;;;23.30;71.30;;;;;;6283303;22;20011;-87
2022/09/02 12:24:55;;;;;;;4.13;1.10;;;23.40;71.10;;;;;;6281840;22;20438;-87
2022/09/02 12:27:38;;;;;;;2.97;1.00;;;23.50;71.00;;;;;;6286660;22;20011;-87
2022/09/02 12:30:11;;;;;;;2.38;1.15;;;23.50;70.30;;;;;;6295005;22;20516;-83
2022/09/02 12:32:49;;;;;;;3.58;1.30;;;23.60;70.20;;;;;;6290463;22;20011;-85
2022/09/02 12:35:33;;;;;;;5.07;1.77;;;23.60;70.00;;;;;;6267218;22;20456;-86
2022/09/02 12:38:11;;;;;;;4.53;1.15;;;23.60;70.50;;;;;;6255681;22;20441;-86
2022/09/02 12:40:48;;;;;;;1.75;1.05;;;23.70;70.70;;;;;;6255576;22;20066;-86
2022/09/02 12:43:34;;;;;;;1.92;1.35;;;23.70;70.30;;;;;;6255871;22;20030;-84
2022/09/02 12:46:12;;;;;;;2.55;1.45;;;23.80;70.40;;;;;;6255846;22;20342;-86
2022/09/02 12:48:56;;;;;;;3.92;1.15;;;23.90;70.20;;;;;;6256160;22;20016;-85
2022/09/02 12:51:49;;;;;;;1.90;1.15;;;23.90;69.70;;;;;;6255075;22;20044;-86
2022/09/02 12:54:16;;;;;;;3.72;1.27;;;23.90;70.30;;;;;;6280511;22;20007;-86
2022/09/02 12:56:48;;;;;;;2.65;1.50;;;24.00;70.40;;;;;;6280468;22;20055;-85
2022/09/02 12:59:29;;;;;;;6.22;1.50;;;24.10;68.90;;;;;;6280345;22;20007;-84
2022/09/02 13:02:23;;;;;;;1.73;1.33;;;24.20;68.00;;;;;;6255649;22;20011;-84
2022/09/02 13:05:22;;;;;;;5.05;1.30;;;24.30;68.30;;;;;;6255069;22;20019;-84
2022/09/02 13:08:26;;;;;;;3.97;1.55;;;24.40;68.70;;;;;;6240339;22;20022;-84
2022/09/02 13:11:25;;;;;;;4.82;1.75;;;24.50;69.00;;;;;;6280098;22;20068;-85
2022/09/02 13:14:27;;;;;;;2.35;1.20;;;24.80;68.30;;;;;;6280868;22;20438;-84
2022/09/02 13:17:26;;;;;;;2.60;1.20;;;25.50;68.90;;;;;;6280242;22;20045;-84